createdAt,value
2023-05-22T00:01:49.473Z,38.87
2023-05-22T00:04:21.595Z,36.90
2023-05-22T00:06:49.376Z,35.60
2023-05-22T00:09:16.449Z,37.10
2023-05-22T00:11:43.260Z,34.90
2023-05-22T00:14:10.303Z,34.90
2023-05-22T00:16:37.224Z,35.40
2023-05-22T00:19:04.444Z,33.57
2023-05-22T00:21:35.086Z,34.50
2023-05-22T00:24:02.287Z,32.10
2023-05-22T00:26:29.120Z,32.80
2023-05-22T00:28:56.043Z,33.17
2023-05-22T00:31:23.234Z,31.43
2023-05-22T00:33:50.755Z,32.50
2023-05-22T00:36:18.797Z,30.50
2023-05-22T00:38:46.393Z,30.30
2023-05-22T00:41:13.411Z,29.60
2023-05-22T00:43:41.315Z,29.13
2023-05-22T00:46:08.231Z,29.43
2023-05-22T00:48:35.077Z,29.37
2023-05-22T00:51:02.312Z,27.13
2023-05-22T00:53:31.055Z,26.23
2023-05-22T00:55:59.498Z,27.63
2023-05-22T00:58:27.261Z,25.73
2023-05-22T01:00:55.382Z,25.30
2023-05-22T01:03:26.989Z,26.50
2023-05-22T01:05:55.136Z,26.07
2023-05-22T01:08:22.159Z,24.00
2023-05-22T01:10:54.552Z,22.83
2023-05-22T01:13:58.482Z,23.30
2023-05-22T01:16:36.171Z,24.43
2023-05-22T01:19:22.436Z,23.40
2023-05-22T01:22:14.015Z,23.30
2023-05-22T01:25:18.857Z,24.03
2023-05-22T01:28:00.537Z,23.87
2023-05-22T01:31:06.511Z,24.50
2023-05-22T01:33:41.671Z,24.37
2023-05-22T01:36:09.762Z,25.97
2023-05-22T01:38:36.929Z,23.97
2023-05-22T01:41:04.508Z,26.43
2023-05-22T01:43:31.246Z,26.50
2023-05-22T01:45:58.107Z,26.00
2023-05-22T01:48:24.867Z,26.60
2023-05-22T01:50:53.606Z,26.53
2023-05-22T01:53:36.923Z,26.80
2023-05-22T01:56:09.240Z,27.40
2023-05-22T01:59:01.483Z,27.33
2023-05-22T02:01:31.792Z,27.13
2023-05-22T02:03:58.885Z,26.87
2023-05-22T02:06:28.770Z,28.30
2023-05-22T02:08:56.027Z,26.37
2023-05-22T02:11:27.587Z,28.23
2023-05-22T02:13:55.688Z,26.17
2023-05-22T02:16:23.367Z,29.50
2023-05-22T02:18:51.352Z,26.83
2023-05-22T02:21:18.095Z,29.07
2023-05-22T02:23:44.946Z,29.63
2023-05-22T02:26:11.685Z,28.83
2023-05-22T02:28:38.399Z,28.37
2023-05-22T02:31:05.722Z,29.30
2023-05-22T02:33:32.499Z,29.57
2023-05-22T02:35:59.237Z,29.43
2023-05-22T02:38:25.945Z,28.87
2023-05-22T02:40:52.729Z,33.00
2023-05-22T02:43:19.463Z,32.27
2023-05-22T02:45:46.396Z,32.27
2023-05-22T02:48:13.292Z,31.40
2023-05-22T02:50:40.368Z,31.17
2023-05-22T02:53:08.395Z,32.60
2023-05-22T02:55:35.196Z,33.17
2023-05-22T02:58:02.893Z,33.97
2023-05-22T03:00:29.726Z,31.57
2023-05-22T03:02:56.570Z,32.40
2023-05-22T03:05:23.430Z,32.83
2023-05-22T03:07:50.618Z,33.37
2023-05-22T03:10:17.430Z,33.87
2023-05-22T03:12:44.213Z,33.50
2023-05-22T03:15:11.617Z,36.13
2023-05-22T03:17:38.387Z,35.77
2023-05-22T03:20:06.817Z,37.93
2023-05-22T03:22:33.577Z,41.10
2023-05-22T03:25:00.445Z,41.73
2023-05-22T03:27:27.251Z,38.73
2023-05-22T03:29:54.014Z,39.97
2023-05-22T03:32:20.718Z,41.33
2023-05-22T03:34:47.483Z,41.33
2023-05-22T03:37:14.236Z,42.17
2023-05-22T03:39:41.078Z,41.67
2023-05-22T03:42:07.820Z,39.27
2023-05-22T03:44:34.568Z,40.87
2023-05-22T03:47:01.313Z,39.37
2023-05-22T03:49:28.064Z,42.70
2023-05-22T03:51:54.808Z,39.50
2023-05-22T03:54:21.726Z,40.93
2023-05-22T03:56:48.463Z,39.00
2023-05-22T03:59:15.221Z,39.67
2023-05-22T04:01:42.152Z,39.30
2023-05-22T04:04:09.596Z,40.63
2023-05-22T04:06:42.954Z,39.77
2023-05-22T04:09:11.786Z,37.03
2023-05-22T04:11:42.654Z,35.60
2023-05-22T04:14:09.788Z,35.40
2023-05-22T04:16:36.591Z,34.10
2023-05-22T04:19:03.750Z,32.23
2023-05-22T04:21:34.452Z,31.63
2023-05-22T04:24:02.646Z,29.70
2023-05-22T04:26:32.005Z,31.50
2023-05-22T04:28:58.764Z,29.33
2023-05-22T04:31:25.602Z,30.20
2023-05-22T04:33:52.331Z,29.90
2023-05-22T04:36:22.276Z,32.33
2023-05-22T04:38:50.273Z,31.40
2023-05-22T04:41:22.624Z,32.00
2023-05-22T04:43:49.896Z,30.53
2023-05-22T04:46:16.780Z,33.50
2023-05-22T04:48:43.604Z,32.40
2023-05-22T04:51:10.508Z,33.50
2023-05-22T04:56:06.301Z,32.23
2023-05-22T04:58:33.342Z,34.70
2023-05-22T05:01:00.188Z,35.00
2023-05-22T05:03:28.458Z,34.73
2023-05-22T05:05:56.717Z,36.30
2023-05-22T05:08:23.503Z,35.53
2023-05-22T05:10:50.582Z,37.40
2023-05-22T05:13:17.311Z,35.80
2023-05-22T05:15:44.146Z,37.13
2023-05-22T05:18:11.496Z,34.37
2023-05-22T05:20:38.527Z,34.60
2023-05-22T05:23:05.522Z,38.37
2023-05-22T05:25:32.276Z,37.40
2023-05-22T05:27:59.308Z,37.37
2023-05-22T05:30:26.140Z,37.87
2023-05-22T05:32:52.923Z,36.10
2023-05-22T05:35:19.899Z,37.37
2023-05-22T05:37:46.638Z,36.73
2023-05-22T05:40:13.845Z,37.00
2023-05-22T05:42:40.562Z,39.00
2023-05-22T05:45:07.734Z,37.87
2023-05-22T05:47:34.942Z,37.90
2023-05-22T05:50:01.934Z,37.60
2023-05-22T05:52:32.573Z,38.80
2023-05-22T05:55:00.960Z,39.10
2023-05-22T05:57:28.696Z,37.70
2023-05-22T05:59:55.422Z,38.07
2023-05-22T06:02:22.400Z,40.00
2023-05-22T06:04:49.368Z,37.83
2023-05-22T06:07:16.416Z,37.53
2023-05-22T06:09:43.139Z,36.97
2023-05-22T06:12:12.812Z,39.73
2023-05-22T06:14:42.737Z,39.20
2023-05-22T06:17:09.548Z,41.27
2023-05-22T06:19:36.614Z,41.30
2023-05-22T06:22:03.564Z,43.70
2023-05-22T06:24:31.910Z,42.93
2023-05-22T06:26:58.708Z,44.40
2023-05-22T06:29:25.469Z,42.30
2023-05-22T06:31:52.301Z,42.90
2023-05-22T06:34:19.104Z,41.63
2023-05-22T06:36:46.054Z,44.17
2023-05-22T06:39:12.871Z,41.33
2023-05-22T06:41:39.610Z,44.57
2023-05-22T06:44:06.780Z,43.47
2023-05-22T06:46:33.559Z,43.77
2023-05-22T06:49:00.401Z,45.67
2023-05-22T06:51:27.224Z,47.60
2023-05-22T06:53:53.934Z,46.30
2023-05-22T06:56:20.784Z,47.13
2023-05-22T06:58:47.490Z,47.77
2023-05-22T07:01:14.445Z,45.33
2023-05-22T07:03:41.184Z,47.67
2023-05-22T07:06:08.320Z,48.40
2023-05-22T07:08:35.128Z,49.93
2023-05-22T07:11:02.073Z,50.90
2023-05-22T07:13:32.048Z,50.37
2023-05-22T07:15:59.285Z,47.77
2023-05-22T07:18:26.059Z,50.70
2023-05-22T07:20:52.862Z,50.33
2023-05-22T07:23:19.754Z,50.03
2023-05-22T07:25:46.819Z,49.67
2023-05-22T07:28:13.523Z,53.20
2023-05-22T07:30:40.472Z,50.13
2023-05-22T07:33:07.432Z,51.70
2023-05-22T07:35:35.022Z,53.03
2023-05-22T07:38:01.863Z,51.07
2023-05-22T07:40:28.746Z,53.90
2023-05-22T07:42:55.780Z,53.13
2023-05-22T07:45:22.542Z,52.47
2023-05-22T07:47:49.272Z,50.83
2023-05-22T07:50:16.264Z,53.33
2023-05-22T07:52:43.759Z,53.33
2023-05-22T07:55:10.589Z,58.03
2023-05-22T07:57:38.430Z,56.67
2023-05-22T08:00:14.614Z,56.57
2023-05-22T08:02:41.825Z,58.07
2023-05-22T08:05:09.635Z,58.27
2023-05-22T08:07:37.068Z,57.80
2023-05-22T08:10:07.864Z,56.50
2023-05-22T08:12:34.734Z,57.20
2023-05-22T08:15:01.465Z,58.50
2023-05-22T08:17:28.271Z,55.23
2023-05-22T08:19:55.159Z,55.60
2023-05-22T08:22:21.965Z,58.47
2023-05-22T08:24:48.686Z,53.30
2023-05-22T08:27:15.493Z,56.80
2023-05-22T08:29:42.305Z,56.20
2023-05-22T08:32:09.150Z,58.73
2023-05-22T08:34:36.145Z,59.20
2023-05-22T08:37:03.022Z,58.20
2023-05-22T08:39:30.796Z,58.10
2023-05-22T08:41:58.029Z,56.73
2023-05-22T08:44:25.304Z,56.93
2023-05-22T08:46:53.599Z,58.40
2023-05-22T08:49:23.930Z,58.20
2023-05-22T08:51:56.167Z,57.73
2023-05-22T08:54:26.485Z,56.67
2023-05-22T08:56:57.168Z,55.43
2023-05-22T08:59:24.543Z,60.47
2023-05-22T09:01:52.830Z,58.53
2023-05-22T09:04:23.672Z,58.63
2023-05-22T09:06:50.743Z,58.27
2023-05-22T09:09:17.880Z,59.60
2023-05-22T09:11:44.672Z,58.07
2023-05-22T09:14:12.663Z,59.43
2023-05-22T09:16:51.509Z,63.80
2023-05-22T09:19:18.477Z,58.83
2023-05-22T09:21:45.271Z,50.17
2023-05-22T09:24:12.141Z,49.70
2023-05-22T09:26:39.643Z,47.50
2023-05-22T09:29:07.503Z,42.40
2023-05-22T09:31:41.840Z,37.67
2023-05-22T09:34:10.571Z,35.40
2023-05-22T09:36:37.378Z,36.70
2023-05-22T09:39:04.662Z,38.77
2023-05-22T09:41:35.842Z,41.90
2023-05-22T09:44:06.945Z,44.00
2023-05-22T09:46:40.211Z,38.57
2023-05-22T09:49:07.010Z,36.70
2023-05-22T09:51:37.505Z,36.60
2023-05-22T09:54:06.803Z,38.30
2023-05-22T09:56:39.680Z,36.83
2023-05-22T09:59:09.557Z,37.63
2023-05-22T10:01:38.663Z,39.80
2023-05-22T10:04:07.795Z,38.60
2023-05-22T10:06:37.021Z,37.63
2023-05-22T10:09:09.182Z,40.27
2023-05-22T10:11:36.794Z,40.60
2023-05-22T10:14:05.104Z,39.03
2023-05-22T10:16:34.154Z,40.83
2023-05-22T10:19:01.374Z,40.90
2023-05-22T10:21:30.173Z,40.87
2023-05-22T10:23:57.890Z,39.93
2023-05-22T10:26:26.069Z,42.60
2023-05-22T10:29:05.004Z,41.87
2023-05-22T10:32:09.826Z,42.03
2023-05-22T10:34:49.018Z,40.80
2023-05-22T10:37:31.261Z,42.90
2023-05-22T10:40:07.426Z,41.60
2023-05-22T10:42:34.586Z,42.27
2023-05-22T10:45:01.810Z,41.80
2023-05-22T10:47:28.766Z,40.47
2023-05-22T10:50:09.693Z,40.37
2023-05-22T10:52:36.881Z,42.43
2023-05-22T10:55:08.774Z,41.33
2023-05-22T10:57:39.617Z,40.50
2023-05-22T11:00:10.910Z,41.37
2023-05-22T11:02:46.899Z,41.13
2023-05-22T11:05:22.551Z,41.03
2023-05-22T11:07:49.300Z,42.77
2023-05-22T11:10:51.902Z,40.80
2023-05-22T11:13:18.805Z,40.63
2023-05-22T11:15:46.838Z,42.03
2023-05-22T11:18:17.024Z,41.57
2023-05-22T11:20:44.441Z,42.30
2023-05-22T11:23:11.724Z,41.57
2023-05-22T11:25:41.100Z,40.47
2023-05-22T11:28:10.593Z,37.30
2023-05-22T11:30:38.209Z,39.70
2023-05-22T11:33:06.587Z,39.90
2023-05-22T11:35:33.968Z,41.37
2023-05-22T11:38:05.061Z,41.23
2023-05-22T11:40:31.850Z,42.20
2023-05-22T11:42:58.712Z,42.40
2023-05-22T11:45:25.898Z,43.17
2023-05-22T11:47:53.042Z,40.90
2023-05-22T11:50:33.461Z,40.37
2023-05-22T11:53:07.451Z,40.40
2023-05-22T11:55:34.814Z,41.50
2023-05-22T11:58:02.743Z,40.00
2023-05-22T12:00:31.176Z,38.30
2023-05-22T12:02:58.593Z,38.00
2023-05-22T12:05:25.601Z,37.30
2023-05-22T12:07:52.851Z,34.93
2023-05-22T12:10:19.811Z,34.30
2023-05-22T12:12:48.040Z,35.70
2023-05-22T12:15:21.329Z,37.27
2023-05-22T12:17:48.141Z,35.30
2023-05-22T12:20:15.028Z,37.10
2023-05-22T12:22:43.474Z,35.67
2023-05-22T12:25:24.928Z,36.50
2023-05-22T12:27:51.793Z,36.10
2023-05-22T12:30:19.135Z,34.53
2023-05-22T12:32:50.164Z,38.33
2023-05-22T12:35:17.601Z,37.47
2023-05-22T12:37:53.495Z,35.93
2023-05-22T12:40:20.448Z,33.80
2023-05-22T12:42:48.468Z,38.40
2023-05-22T12:45:17.687Z,38.33
2023-05-22T12:47:44.677Z,38.57
2023-05-22T12:50:11.634Z,37.00
2023-05-22T12:52:38.526Z,36.20
2023-05-22T12:55:05.789Z,35.63
2023-05-22T12:57:32.672Z,34.00
2023-05-22T12:59:59.565Z,35.20
2023-05-22T13:02:26.749Z,33.90
2023-05-22T13:04:53.611Z,32.83
2023-05-22T13:07:20.565Z,34.53
2023-05-22T13:09:47.385Z,32.20
2023-05-22T13:12:14.287Z,32.37
2023-05-22T13:14:41.092Z,35.03
2023-05-22T13:17:08.189Z,32.53
2023-05-22T13:19:35.238Z,29.40
2023-05-22T13:22:02.044Z,30.63
2023-05-22T13:24:28.742Z,29.30
2023-05-22T13:26:55.589Z,31.43
2023-05-22T13:29:22.306Z,31.13
2023-05-22T13:31:49.074Z,30.70
2023-05-22T13:34:16.074Z,31.77
2023-05-22T13:36:43.023Z,31.47
2023-05-22T13:39:09.865Z,30.77
2023-05-22T13:41:36.647Z,32.10
2023-05-22T13:44:03.394Z,31.00
2023-05-22T13:46:30.257Z,32.20
2023-05-22T13:48:56.996Z,37.13
2023-05-22T13:51:23.839Z,32.63
2023-05-22T13:53:50.613Z,35.70
2023-05-22T13:56:17.425Z,35.10
2023-05-22T13:58:44.167Z,34.70
2023-05-22T14:01:10.948Z,34.33
2023-05-22T14:03:37.846Z,32.60
2023-05-22T14:06:04.921Z,34.75
2023-05-22T14:08:31.691Z,34.17
2023-05-22T14:10:58.517Z,35.90
2023-05-22T14:13:25.277Z,35.10
2023-05-22T14:15:52.054Z,35.33
2023-05-22T14:18:18.940Z,35.50
2023-05-22T14:20:46.496Z,36.00
2023-05-22T14:23:14.138Z,36.40
2023-05-22T14:25:43.036Z,35.37
2023-05-22T14:28:10.930Z,37.10
2023-05-22T14:30:37.885Z,38.37
2023-05-22T14:33:05.482Z,37.20
2023-05-22T14:35:33.240Z,34.80
2023-05-22T14:38:00.152Z,36.63
2023-05-22T14:40:26.911Z,36.83
2023-05-22T14:42:54.459Z,36.27
2023-05-22T14:45:21.533Z,36.80
2023-05-22T14:47:48.405Z,35.50
2023-05-22T14:50:19.550Z,37.80
2023-05-22T14:52:47.655Z,36.60
2023-05-22T14:55:14.616Z,40.10
2023-05-22T14:57:41.488Z,36.90
2023-05-22T15:00:12.258Z,36.80
2023-05-22T15:02:40.155Z,36.47
2023-05-22T15:05:07.834Z,36.73
2023-05-22T15:07:44.112Z,36.50
2023-05-22T15:10:12.963Z,35.53
2023-05-22T15:12:39.786Z,37.80
2023-05-22T15:15:07.032Z,37.77
2023-05-22T15:17:33.771Z,40.57
2023-05-22T15:20:00.540Z,39.00
2023-05-22T15:22:27.281Z,38.60
2023-05-22T15:25:07.988Z,41.40
2023-05-22T15:27:35.612Z,41.50
2023-05-22T15:30:03.390Z,38.83
2023-05-22T15:32:33.113Z,39.47
2023-05-22T15:35:00.093Z,41.37
2023-05-22T15:37:27.896Z,39.97
2023-05-22T15:39:55.379Z,43.30
2023-05-22T15:42:22.201Z,39.77
2023-05-22T15:44:48.948Z,38.50
2023-05-22T15:47:16.676Z,43.80
2023-05-22T15:49:43.411Z,43.23
2023-05-22T15:52:10.148Z,43.37
2023-05-22T15:54:36.915Z,44.17
2023-05-22T15:57:03.812Z,41.00
2023-05-22T15:59:30.542Z,44.40
2023-05-22T16:01:57.305Z,44.57
2023-05-22T16:04:24.040Z,45.27
2023-05-22T16:06:50.887Z,42.80
2023-05-22T16:09:19.479Z,43.53
2023-05-22T16:11:46.508Z,43.20
2023-05-22T16:14:13.599Z,46.43
2023-05-22T16:16:40.837Z,46.93
2023-05-22T16:19:07.890Z,44.10
2023-05-22T16:21:34.790Z,44.30
2023-05-22T16:24:01.587Z,44.53
2023-05-22T16:26:28.311Z,43.70
2023-05-22T16:28:55.110Z,43.63
2023-05-22T16:31:22.321Z,42.10
2023-05-22T16:33:49.086Z,42.07
2023-05-22T16:36:15.867Z,45.27
2023-05-22T16:38:42.675Z,47.93
2023-05-22T16:41:09.512Z,46.20
2023-05-22T16:43:37.743Z,45.87
2023-05-22T16:46:04.609Z,44.53
2023-05-22T16:48:31.370Z,46.07
2023-05-22T16:50:58.169Z,46.90
2023-05-22T16:53:24.958Z,47.20
2023-05-22T16:55:52.850Z,44.10
2023-05-22T16:58:19.588Z,44.87
2023-05-22T17:00:46.449Z,45.03
2023-05-22T17:03:14.098Z,47.00
2023-05-22T17:05:41.581Z,48.03
2023-05-22T17:08:08.816Z,46.83
2023-05-22T17:10:35.888Z,46.07
2023-05-22T17:13:03.003Z,47.33
2023-05-22T17:15:29.808Z,44.50
2023-05-22T17:17:57.062Z,43.97
2023-05-22T17:20:23.939Z,44.10
2023-05-22T17:22:50.732Z,44.93
2023-05-22T17:25:17.613Z,45.33
2023-05-22T17:27:45.077Z,43.40
2023-05-22T17:30:12.702Z,43.13
2023-05-22T17:32:39.710Z,43.33
2023-05-22T17:35:07.106Z,42.43
2023-05-22T17:37:34.347Z,44.97
2023-05-22T17:40:01.162Z,45.67
2023-05-22T17:42:28.082Z,42.50
2023-05-22T17:44:54.881Z,42.10
2023-05-22T17:47:21.824Z,42.93
2023-05-22T17:49:48.823Z,42.90
2023-05-22T17:52:15.667Z,39.83
2023-05-22T17:54:42.594Z,42.47
2023-05-22T17:57:09.546Z,40.67
2023-05-22T17:59:38.463Z,39.70
2023-05-22T18:02:07.920Z,39.37
2023-05-22T18:04:34.666Z,40.20
2023-05-22T18:07:01.493Z,39.80
2023-05-22T18:09:28.226Z,39.40
2023-05-22T18:11:54.969Z,38.27
2023-05-22T18:14:21.702Z,36.87
2023-05-22T18:16:48.480Z,35.57
2023-05-22T18:19:15.342Z,30.30
2023-05-22T18:21:42.255Z,29.80
2023-05-22T18:24:09.288Z,21.63
2023-05-22T18:26:36.040Z,17.90
2023-05-22T18:29:02.811Z,14.97
2023-05-22T18:31:29.676Z,13.63
2023-05-22T18:33:56.581Z,13.70
2023-05-22T18:36:23.400Z,12.67
2023-05-22T18:38:50.238Z,11.63
2023-05-22T18:41:17.017Z,10.57
2023-05-22T18:43:43.835Z,10.37
2023-05-22T18:46:10.729Z,8.97
2023-05-22T18:48:37.495Z,8.70
2023-05-22T18:51:04.335Z,8.80
2023-05-22T18:53:31.476Z,8.00
2023-05-22T18:55:58.420Z,8.20
2023-05-22T18:58:25.583Z,8.03
2023-05-22T19:00:55.465Z,9.00
2023-05-22T19:03:22.412Z,7.10
2023-05-22T19:05:49.221Z,9.00
2023-05-22T19:08:16.032Z,7.80
2023-05-22T19:10:43.004Z,9.40
2023-05-22T19:13:09.973Z,8.43
2023-05-22T19:15:37.765Z,8.07
2023-05-22T19:18:04.705Z,8.57
2023-05-22T19:20:31.637Z,7.43
2023-05-22T19:22:58.480Z,7.80
2023-05-22T19:25:25.318Z,8.73
2023-05-22T19:27:52.209Z,9.07
2023-05-22T19:30:19.178Z,8.13
2023-05-22T19:32:46.841Z,8.63
2023-05-22T19:35:13.618Z,8.67
2023-05-22T19:37:40.503Z,8.47
2023-05-22T19:40:09.656Z,8.53
2023-05-22T19:42:38.894Z,7.93
2023-05-22T19:45:06.242Z,8.60
2023-05-22T19:47:33.065Z,8.43
2023-05-22T19:49:59.954Z,8.60
2023-05-22T19:52:26.861Z,9.50
2023-05-22T19:54:53.642Z,10.10
2023-05-22T19:57:20.623Z,9.27
2023-05-22T19:59:47.487Z,10.47
2023-05-22T20:02:14.261Z,10.13
2023-05-22T20:04:43.029Z,10.73
2023-05-22T20:07:10.557Z,11.00
2023-05-22T20:09:37.516Z,11.63
2023-05-22T20:12:04.567Z,11.10
2023-05-22T20:14:31.594Z,10.87
2023-05-22T20:17:03.151Z,11.50
2023-05-22T20:19:30.091Z,11.80
2023-05-22T20:21:58.436Z,12.80
2023-05-22T20:24:25.687Z,11.53
2023-05-22T20:26:52.919Z,11.80
2023-05-22T20:29:19.702Z,12.90
2023-05-22T20:31:46.812Z,12.30
2023-05-22T20:34:13.786Z,13.30
2023-05-22T20:36:42.572Z,12.33
2023-05-22T20:39:11.754Z,12.80
2023-05-22T20:41:38.632Z,12.90
2023-05-22T20:44:06.430Z,13.83
2023-05-22T20:46:33.297Z,13.23
2023-05-22T20:49:00.208Z,13.63
2023-05-22T20:51:32.364Z,13.13
2023-05-22T20:53:59.984Z,13.43
2023-05-22T20:56:27.428Z,13.30
2023-05-22T20:58:54.714Z,12.90
2023-05-22T21:01:22.153Z,13.00
2023-05-22T21:03:51.435Z,13.03
2023-05-22T21:06:19.022Z,13.80
2023-05-22T21:08:46.019Z,14.03
2023-05-22T21:11:13.014Z,15.33
2023-05-22T21:13:39.815Z,14.53
2023-05-22T21:16:06.916Z,15.20
2023-05-22T21:18:33.885Z,15.03
2023-05-22T21:21:00.762Z,14.17
2023-05-22T21:23:27.573Z,15.40
2023-05-22T21:25:54.283Z,14.37
2023-05-22T21:28:21.066Z,14.37
2023-05-22T21:30:47.877Z,13.87
2023-05-22T21:33:14.701Z,15.70
2023-05-22T21:35:41.541Z,15.37
2023-05-22T21:38:08.301Z,14.20
2023-05-22T21:40:34.997Z,14.87
2023-05-22T21:43:01.743Z,14.60
2023-05-22T21:45:28.488Z,13.60
2023-05-22T21:47:55.321Z,14.10
2023-05-22T21:50:22.317Z,13.87
2023-05-22T21:52:49.048Z,12.97
2023-05-22T21:55:15.868Z,11.90
2023-05-22T21:57:42.729Z,13.37
2023-05-22T22:00:10.098Z,11.57
2023-05-22T22:02:36.980Z,10.33
2023-05-22T22:05:04.498Z,10.90
2023-05-22T22:07:31.293Z,10.33
2023-05-22T22:09:59.295Z,9.90
2023-05-22T22:12:26.409Z,10.47
2023-05-22T22:14:53.255Z,9.10
2023-05-22T22:17:23.414Z,8.23
2023-05-22T22:19:50.580Z,8.13
2023-05-22T22:22:17.378Z,7.37
2023-05-22T22:24:45.080Z,7.43
2023-05-22T22:27:13.128Z,6.73
2023-05-22T22:29:41.730Z,6.27
2023-05-22T22:32:08.537Z,6.33
2023-05-22T22:34:35.333Z,6.47
2023-05-22T22:37:02.355Z,6.50
2023-05-22T22:39:29.127Z,5.90
2023-05-22T22:41:55.948Z,6.83
2023-05-22T22:44:22.781Z,5.60
2023-05-22T22:46:49.615Z,7.17
2023-05-22T22:49:16.376Z,6.20
2023-05-22T22:51:43.574Z,5.47
2023-05-22T22:54:10.729Z,6.30
2023-05-22T22:56:37.623Z,5.73
2023-05-22T22:59:04.382Z,6.10
2023-05-22T23:01:31.232Z,5.70
2023-05-22T23:03:58.207Z,6.93
2023-05-22T23:06:26.675Z,6.43
2023-05-22T23:08:53.468Z,6.50
2023-05-22T23:11:20.227Z,7.10
2023-05-22T23:13:47.106Z,7.50
2023-05-22T23:16:13.952Z,7.10
2023-05-22T23:18:40.689Z,8.20
2023-05-22T23:21:07.568Z,8.90
2023-05-22T23:23:34.331Z,8.33
2023-05-22T23:26:01.318Z,8.90
2023-05-22T23:28:28.137Z,8.90
2023-05-22T23:30:55.064Z,7.83
2023-05-22T23:33:21.939Z,9.10
2023-05-22T23:35:48.810Z,8.57
2023-05-22T23:38:15.731Z,7.70
2023-05-22T23:40:42.464Z,8.30
2023-05-22T23:43:09.265Z,8.73
2023-05-22T23:45:36.249Z,7.83
2023-05-22T23:48:03.007Z,7.97
2023-05-22T23:50:29.790Z,8.03
2023-05-22T23:52:56.576Z,8.40
2023-05-22T23:55:23.380Z,8.10
2023-05-22T23:57:50.126Z,8.10
